Time;durP1;ratioP1;P1;durP2;ratioP2;P2;SDS_P1;SDS_P2;PMS_P1;PMS_P2;Temp;Humidity;BMP_temperature;BMP_pressure;BME280_temperature;BME280_humidity;BME280_pressure;Samples;Min_cycle;Max_cycle;Signal;HPM_P1;HPM_P2
2022/10/26 00:00:46;;;;;;;15.07;8.32;;;;;;;2.00;63.55;100319.56;5036290;28;20033;-61
2022/10/26 00:03:12;;;;;;;19.83;8.75;;;;;;;2.08;63.04;100314.84;5051487;28;20793;-60
2022/10/26 00:05:38;;;;;;;16.52;9.20;;;;;;;1.97;63.32;100309.13;5035918;28;20033;-61
2022/10/26 00:08:05;;;;;;;16.20;8.27;;;;;;;1.96;63.39;100308.25;5034795;28;20044;-61
2022/10/26 00:10:32;;;;;;;13.32;8.38;;;;;;;1.98;63.66;100310.84;5035041;28;20095;-61
2022/10/26 00:12:57;;;;;;;20.13;8.82;;;;;;;1.88;63.86;100306.78;5035569;28;20048;-62
2022/10/26 00:15:23;;;;;;;18.15;8.15;;;;;;;1.93;63.87;100308.34;5036886;28;20029;-61
2022/10/26 00:17:49;;;;;;;16.98;7.97;;;;;;;1.85;63.77;100284.03;5045549;28;20040;-62
2022/10/26 00:20:15;;;;;;;15.43;8.05;;;;;;;1.93;63.51;100307.47;5053994;28;20382;-61
2022/10/26 00:22:41;;;;;;;18.38;8.70;;;;;;;1.92;63.53;100303.13;5054438;28;20037;-61
2022/10/26 00:25:06;;;;;;;14.13;8.13;;;;;;;1.88;63.77;100298.88;5070761;28;20028;-61
2022/10/26 00:27:36;;;;;;;13.82;7.63;;;;;;;1.74;64.05;100294.09;5037319;28;20455;-62
2022/10/26 00:30:03;;;;;;;13.63;8.15;;;;;;;1.71;64.18;100303.00;5050364;28;20367;-61
2022/10/26 00:32:29;;;;;;;16.40;8.52;;;;;;;1.58;64.32;100286.75;5035163;28;20134;-61
2022/10/26 00:34:54;;;;;;;14.20;7.53;;;;;;;1.48;64.15;100259.84;5034408;28;20041;-66
2022/10/26 00:37:20;;;;;;;13.75;8.05;;;;;;;1.50;64.67;100289.66;5050377;28;20053;-69
2022/10/26 00:39:45;;;;;;;16.70;7.68;;;;;;;1.44;65.27;100295.13;5053456;28;20033;-62
2022/10/26 00:42:18;;;;;;;11.40;7.38;;;;;;;1.23;64.91;100260.69;5054452;28;20052;-62
2022/10/26 00:44:46;;;;;;;13.40;7.82;;;;;;;1.28;65.37;100297.44;5035017;28;20077;-62
2022/10/26 00:47:19;;;;;;;11.68;6.75;;;;;;;1.26;65.56;100281.69;5034059;28;20103;-62
2022/10/26 00:49:48;;;;;;;15.95;7.95;;;;;;;1.21;65.35;100285.41;5035162;28;20053;-60
2022/10/26 00:52:16;;;;;;;16.58;8.57;;;;;;;1.12;65.87;100289.22;5034993;28;20091;-65
2022/10/26 00:54:43;;;;;;;15.48;8.70;;;;;;;0.87;66.10;100276.84;5033339;28;20131;-57
2022/10/26 00:57:11;;;;;;;15.05;8.25;;;;;;;1.09;65.62;100313.06;5034841;28;20041;-58
2022/10/26 00:59:36;;;;;;;13.45;8.10;;;;;;;0.94;66.72;100304.72;5047155;28;20036;-56
2022/10/26 01:02:02;;;;;;;12.98;7.05;;;;;;;1.13;65.38;100306.75;5054243;28;20036;-59
2022/10/26 01:04:27;;;;;;;12.10;7.75;;;;;;;1.06;65.85;100307.88;5054011;28;20025;-59
2022/10/26 01:06:53;;;;;;;13.30;7.82;;;;;;;1.15;65.11;100291.72;5049815;28;20025;-59
2022/10/26 01:09:19;;;;;;;18.02;8.40;;;;;;;0.87;65.80;100247.84;5034566;28;20040;-59
2022/10/26 01:11:45;;;;;;;14.38;8.32;;;;;;;0.96;65.51;100258.06;5050644;28;20025;-64
2022/10/26 01:14:14;;;;;;;13.52;8.02;;;;;;;1.21;65.05;100302.09;5054313;28;20364;-61
2022/10/26 01:17:17;;;;;;;14.48;8.48;;;;;;;1.22;65.46;100295.03;5053570;28;20478;-59
2022/10/26 01:20:10;;;;;;;17.73;8.15;;;;;;;1.19;65.43;100298.63;5044636;28;20063;-56
2022/10/26 01:22:49;;;;;;;19.10;8.10;;;;;;;1.16;65.80;100285.53;5054428;28;20041;-57
2022/10/26 01:25:29;;;;;;;19.55;7.43;;;;;;;1.30;64.86;100300.91;5054208;28;20033;-59
2022/10/26 01:27:55;;;;;;;15.75;9.02;;;;;;;1.25;65.34;100305.47;5054475;28;20036;-60
2022/10/26 01:30:44;;;;;;;15.25;8.85;;;;;;;1.43;64.61;100285.50;5054171;28;20036;-60
2022/10/26 01:33:22;;;;;;;17.63;8.48;;;;;;;1.43;64.56;100293.41;5051320;28;20448;-61
2022/10/26 01:35:50;;;;;;;12.18;7.50;;;;;;;1.45;64.60;100290.72;5053809;28;20037;-58
2022/10/26 01:38:21;;;;;;;15.77;8.88;;;;;;;1.37;65.06;100291.00;5054122;28;20348;-56
2022/10/26 01:40:58;;;;;;;13.73;8.63;;;;;;;1.34;65.17;100296.38;5052869;28;20086;-58
2022/10/26 01:43:27;;;;;;;18.65;9.27;;;;;;;1.29;65.42;100299.16;5053905;28;20041;-52
2022/10/26 01:45:54;;;;;;;16.83;8.60;;;;;;;1.31;65.61;100288.59;5053920;28;20128;-57
2022/10/26 01:48:22;;;;;;;14.30;9.43;;;;;;;1.41;64.73;100287.34;5034088;28;20029;-59
2022/10/26 01:50:52;;;;;;;13.85;8.02;;;;;;;1.47;64.83;100294.19;5033886;28;20029;-58
2022/10/26 01:53:18;;;;;;;14.32;8.93;;;;;;;1.51;64.46;100298.44;5048558;28;20051;-59
2022/10/26 01:55:48;;;;;;;19.35;9.60;;;;;;;1.47;64.84;100294.19;5054045;28;20059;-61
2022/10/26 01:58:31;;;;;;;17.92;8.63;;;;;;;1.50;65.25;100294.94;5048351;28;20415;-61
2022/10/26 02:01:25;;;;;;;15.35;8.27;;;;;;;1.39;65.07;100265.41;5044542;28;20037;-60
2022/10/26 02:04:02;;;;;;;17.17;9.32;;;;;;;1.62;64.38;100295.41;5033819;28;20041;-57
2022/10/26 02:07:01;;;;;;;13.82;8.63;;;;;;;1.55;64.78;100294.75;5034021;28;20112;-58
2022/10/26 02:09:53;;;;;;;15.32;8.80;;;;;;;1.56;64.34;100297.34;5026421;28;20052;-56
2022/10/26 02:12:31;;;;;;;17.58;8.95;;;;;;;1.29;65.44;100296.53;5061490;28;20371;-55
2022/10/26 02:15:07;;;;;;;12.75;8.50;;;;;;;1.33;65.03;100289.38;5053687;28;20171;-56
2022/10/26 02:17:41;;;;;;;15.52;9.68;;;;;;;1.21;65.78;100288.91;5053438;28;20105;-55
2022/10/26 02:20:11;;;;;;;20.25;9.10;;;;;;;1.20;65.46;100291.59;5053023;28;20033;-56
2022/10/26 02:22:41;;;;;;;17.88;9.20;;;;;;;1.01;66.00;100292.22;5052612;28;20104;-56
2022/10/26 02:25:11;;;;;;;18.75;9.05;;;;;;;0.93;66.67;100292.44;5053454;28;20029;-54
2022/10/26 02:27:44;;;;;;;17.70;8.32;;;;;;;0.87;67.11;100287.38;5036563;28;20033;-55
2022/10/26 02:30:11;;;;;;;17.23;9.02;;;;;;;0.91;66.63;100275.81;5032135;28;20029;-56
2022/10/26 02:32:43;;;;;;;14.82;9.18;;;;;;;0.79;67.37;100282.38;5038578;28;20418;-59
2022/10/26 02:35:11;;;;;;;14.60;8.57;;;;;;;0.79;67.33;100294.69;5053253;28;20032;-53
2022/10/26 02:37:38;;;;;;;15.90;9.10;;;;;;;0.74;67.29;100283.44;5053009;28;20110;-55
2022/10/26 02:40:10;;;;;;;13.20;8.65;;;;;;;0.74;67.55;100284.28;5050996;28;20025;-57
2022/10/26 02:42:38;;;;;;;13.98;8.18;;;;;;;0.75;67.39;100293.09;5051570;28;20049;-58
2022/10/26 02:45:09;;;;;;;14.93;8.68;;;;;;;0.78;67.16;100298.25;5052226;28;20036;-62
2022/10/26 02:47:34;;;;;;;14.27;8.18;;;;;;;0.73;67.58;100293.13;5051887;28;20470;-58
2022/10/26 02:50:00;;;;;;;13.13;8.13;;;;;;;0.67;67.64;100293.31;5046661;28;20111;-58
2022/10/26 02:52:38;;;;;;;18.85;7.60;;;;;;;0.84;67.14;100293.66;5043302;28;20395;-60
2022/10/26 02:55:13;;;;;;;12.88;7.03;;;;;;;0.88;66.72;100297.03;5052720;28;20032;-60
2022/10/26 02:57:43;;;;;;;;;;;;;;;1.15;65.12;100297.00;5053025;28;20513;-60
2022/10/26 03:00:12;;;;;;;14.93;7.85;;;;;;;1.05;66.15;100298.25;5050976;28;19935;-56
2022/10/26 03:02:40;;;;;;;13.05;8.02;;;;;;;0.97;66.12;100296.75;5052392;28;20044;-55
2022/10/26 03:05:20;;;;;;;18.55;8.38;;;;;;;1.03;66.45;100294.81;5035815;28;20033;-53
2022/10/26 03:07:45;;;;;;;15.23;8.43;;;;;;;0.99;66.67;100297.53;5032415;28;20106;-54
2022/10/26 03:10:11;;;;;;;15.70;8.32;;;;;;;1.07;66.44;100291.16;5042199;28;20029;-55
2022/10/26 03:12:37;;;;;;;14.07;7.72;;;;;;;1.10;66.57;100286.63;5052775;28;20452;-51
2022/10/26 03:15:04;;;;;;;12.38;7.68;;;;;;;1.12;66.09;100283.94;5052737;28;20056;-57
2022/10/26 03:17:29;;;;;;;12.38;7.55;;;;;;;1.20;66.18;100289.78;5051004;28;20036;-56
2022/10/26 03:19:55;;;;;;;11.80;7.68;;;;;;;1.32;65.53;100292.94;5052274;28;20025;-57
2022/10/26 03:22:21;;;;;;;13.48;7.38;;;;;;;1.21;65.85;100283.63;5039220;28;20029;-56
2022/10/26 03:24:46;;;;;;;16.33;7.85;;;;;;;1.33;65.63;100282.34;5032308;28;20029;-56
2022/10/26 03:27:12;;;;;;;15.43;7.55;;;;;;;1.40;64.91;100294.41;5032844;28;20052;-55
2022/10/26 03:29:38;;;;;;;14.82;8.05;;;;;;;1.35;65.36;100282.28;5042115;28;20035;-55
2022/10/26 03:32:04;;;;;;;11.43;7.13;;;;;;;1.44;65.18;100289.84;5035511;28;20112;-52
2022/10/26 03:34:29;;;;;;;17.30;8.38;;;;;;;1.49;65.19;100289.72;5044243;28;20075;-50
2022/10/26 03:36:55;;;;;;;11.73;7.63;;;;;;;1.60;64.70;100290.19;5034415;28;20096;-56
2022/10/26 03:39:20;;;;;;;13.45;7.53;;;;;;;1.64;64.40;100285.66;5032255;28;20032;-55
2022/10/26 03:41:46;;;;;;;15.63;8.07;;;;;;;1.61;64.71;100280.50;5031263;28;20128;-56
2022/10/26 03:44:12;;;;;;;12.57;7.18;;;;;;;1.62;64.36;100290.13;5032730;28;20424;-57
2022/10/26 03:46:38;;;;;;;14.05;7.50;;;;;;;1.68;64.47;100287.25;5031653;28;20061;-56
2022/10/26 03:49:03;;;;;;;12.45;7.47;;;;;;;1.64;64.95;100277.72;5032143;28;20098;-57
2022/10/26 03:51:29;;;;;;;12.30;7.53;;;;;;;1.60;64.63;100276.13;5032953;28;20526;-57
2022/10/26 03:53:54;;;;;;;17.38;7.53;;;;;;;1.65;64.75;100288.25;5032673;28;20037;-53
2022/10/26 03:56:19;;;;;;;11.30;7.18;;;;;;;1.72;64.32;100278.34;5031089;28;20029;-55
2022/10/26 03:58:45;;;;;;;13.82;7.78;;;;;;;1.62;64.69;100266.38;5039450;28;20108;-61
2022/10/26 04:01:10;;;;;;;12.57;7.95;;;;;;;1.76;64.02;100271.16;5052298;28;20033;-57
2022/10/26 04:03:36;;;;;;;13.63;7.40;;;;;;;1.78;64.48;100283.38;5051303;28;20083;-57
2022/10/26 04:06:02;;;;;;;13.95;7.78;;;;;;;1.81;64.00;100275.34;5051976;28;20037;-57
2022/10/26 04:08:28;;;;;;;12.43;7.88;;;;;;;1.88;63.63;100277.75;5046687;28;20026;-55
2022/10/26 04:10:53;;;;;;;14.82;7.93;;;;;;;1.91;63.65;100272.34;5032184;28;20364;-55
2022/10/26 04:13:19;;;;;;;17.92;8.13;;;;;;;1.89;63.58;100275.06;5033888;28;20022;-56
2022/10/26 04:15:44;;;;;;;13.60;8.18;;;;;;;1.94;63.55;100278.38;5035606;28;20451;-56
2022/10/26 04:18:11;;;;;;;17.50;8.20;;;;;;;1.94;63.10;100282.81;5037430;28;20046;-59
2022/10/26 04:20:37;;;;;;;12.30;7.82;;;;;;;1.94;63.92;100288.09;5071821;28;20029;-56
2022/10/26 04:23:05;;;;;;;11.43;7.32;;;;;;;2.00;63.47;100293.16;5039930;28;20029;-57
2022/10/26 04:25:31;;;;;;;13.63;7.75;;;;;;;2.05;63.46;100293.84;5052340;28;20033;-60
2022/10/26 04:27:57;;;;;;;14.10;7.32;;;;;;;2.14;63.28;100290.84;5043702;28;20037;-54
2022/10/26 04:30:23;;;;;;;11.32;7.32;;;;;;;2.21;62.74;100291.47;5055993;28;20089;-57
2022/10/26 04:32:48;;;;;;;12.65;8.38;;;;;;;2.28;62.34;100292.94;5055069;28;20410;-54
2022/10/26 04:35:14;;;;;;;18.60;8.45;;;;;;;2.40;62.03;100306.63;5037008;28;20033;-55
2022/10/26 04:37:39;;;;;;;15.93;8.45;;;;;;;2.36;62.18;100299.72;5035313;28;20045;-56
2022/10/26 04:40:05;;;;;;;11.80;8.00;;;;;;;2.32;62.67;100304.25;5051208;28;20087;-54
2022/10/26 04:42:39;;;;;;;13.45;7.85;;;;;;;2.45;61.98;100309.94;5036206;28;20184;-54
2022/10/26 04:45:05;;;;;;;14.90;8.25;;;;;;;2.53;61.39;100304.34;5035275;28;20045;-54
2022/10/26 04:47:31;;;;;;;14.30;7.68;;;;;;;2.48;61.54;100293.09;5053487;28;20120;-60
2022/10/26 04:49:56;;;;;;;13.07;8.30;;;;;;;2.66;61.43;100310.00;5070712;28;20158;-57
2022/10/26 04:52:22;;;;;;;15.52;8.95;;;;;;;2.69;60.86;100305.47;5054819;28;20029;-55
2022/10/26 04:54:47;;;;;;;16.15;8.52;;;;;;;2.61;61.58;100298.75;5041688;28;20471;-57
2022/10/26 04:57:13;;;;;;;13.80;7.45;;;;;;;2.73;61.11;100308.84;5036874;28;20041;-55
2022/10/26 04:59:38;;;;;;;15.05;8.50;;;;;;;2.78;61.09;100308.66;5034982;28;20083;-57
2022/10/26 05:02:03;;;;;;;14.40;8.07;;;;;;;2.81;60.56;100304.13;5034747;28;20033;-60
2022/10/26 05:04:29;;;;;;;15.38;7.85;;;;;;;2.84;60.51;100297.81;5034630;28;20034;-57
2022/10/26 05:06:54;;;;;;;13.25;7.32;;;;;;;2.83;60.57;100298.75;5054232;28;20371;-62
2022/10/26 05:09:19;;;;;;;12.20;7.68;;;;;;;2.91;60.49;100301.94;5053418;28;20108;-62
2022/10/26 05:11:45;;;;;;;14.05;8.15;;;;;;;2.98;60.41;100300.78;5034762;28;20453;-57
2022/10/26 05:14:11;;;;;;;17.02;7.82;;;;;;;2.93;60.53;100299.22;5034906;28;20105;-63
2022/10/26 05:16:37;;;;;;;15.70;8.27;;;;;;;2.90;60.75;100292.31;5034772;28;20126;-56
2022/10/26 05:19:02;;;;;;;16.95;7.80;;;;;;;2.99;60.33;100305.13;5034377;28;20099;-56
2022/10/26 05:21:28;;;;;;;19.15;8.18;;;;;;;3.10;59.86;100306.47;5034563;28;20033;-55
2022/10/26 05:23:54;;;;;;;16.55;8.40;;;;;;;3.16;59.96;100293.00;5034573;28;20026;-58
2022/10/26 05:26:23;;;;;;;12.02;6.68;;;;;;;3.25;59.34;100299.66;5037038;28;20130;-57
2022/10/26 05:28:50;;;;;;;10.27;7.00;;;;;;;3.24;59.29;100300.59;5054232;28;20021;-59
2022/10/26 05:31:15;;;;;;;14.45;7.90;;;;;;;3.22;59.27;100290.09;5054041;28;20470;-55
2022/10/26 05:33:41;;;;;;;13.18;7.65;;;;;;;3.22;59.39;100284.78;5051682;28;20028;-55
2022/10/26 05:36:07;;;;;;;15.07;7.25;;;;;;;3.37;59.21;100288.56;5033994;28;20044;-58
2022/10/26 05:38:32;;;;;;;16.25;7.82;;;;;;;3.32;59.22;100284.38;5034197;28;20025;-58
2022/10/26 05:41:00;;;;;;;15.43;8.13;;;;;;;3.27;59.17;100301.31;5033908;28;20040;-57
2022/10/26 05:43:26;;;;;;;13.15;7.97;;;;;;;3.32;59.33;100309.06;5045326;28;20104;-59
2022/10/26 05:45:53;;;;;;;14.75;7.72;;;;;;;3.36;58.90;100304.50;5056250;28;20497;-58
2022/10/26 05:48:19;;;;;;;16.45;8.27;;;;;;;3.48;58.94;100306.63;5044417;28;20200;-58
2022/10/26 05:50:44;;;;;;;15.00;7.78;;;;;;;3.55;58.38;100307.22;5044955;28;20420;-59
2022/10/26 05:53:10;;;;;;;12.88;7.45;;;;;;;3.69;57.83;100311.91;5054062;28;20465;-61
2022/10/26 05:55:36;;;;;;;15.45;7.88;;;;;;;3.63;57.56;100288.34;5053947;28;20462;-60
2022/10/26 05:58:02;;;;;;;20.52;8.32;;;;;;;3.88;57.53;100310.16;5052005;28;20028;-61
2022/10/26 06:00:29;;;;;;;16.00;7.63;;;;;;;4.08;56.82;100313.69;5053510;28;20028;-56
2022/10/26 06:03:12;;;;;;;15.00;7.78;;;;;;;4.38;56.38;100313.22;5052219;28;20040;-61
2022/10/26 06:05:58;;;;;;;14.50;7.10;;;;;;;4.77;55.64;100321.09;5051648;28;20042;-60
2022/10/26 06:08:26;;;;;;;14.85;7.20;;;;;;;4.73;54.52;100280.63;5039147;28;20506;-61
2022/10/26 06:10:53;;;;;;;12.10;7.10;;;;;;;5.18;53.28;100318.22;5053440;28;20033;-58
2022/10/26 06:13:19;;;;;;;13.55;7.18;;;;;;;5.26;52.81;100305.41;5037662;28;20116;-60
2022/10/26 06:16:18;;;;;;;12.95;7.15;;;;;;;5.68;53.38;100300.63;5033715;28;20108;-65
2022/10/26 06:19:32;;;;;;;19.60;6.93;;;;;;;6.28;52.03;100311.69;5049380;28;20045;-64
2022/10/26 06:22:15;;;;;;;16.17;6.78;;;;;;;6.70;49.55;100309.34;5034554;28;20045;-61
2022/10/26 06:24:40;;;;;;;9.48;6.75;;;;;;;7.28;47.76;100307.78;5052975;28;20060;-62
2022/10/26 06:27:35;;;;;;;10.45;6.57;;;;;;;8.06;46.89;100300.44;5034464;28;20069;-61
2022/10/26 06:30:05;;;;;;;11.85;6.78;;;;;;;8.97;44.29;100300.94;5030944;28;20107;-62
2022/10/26 06:32:32;;;;;;;13.60;7.05;;;;;;;10.14;41.32;100304.56;5045533;28;20064;-61
2022/10/26 06:35:25;;;;;;;14.48;7.00;;;;;;;10.95;40.57;100294.28;5046911;28;20053;-61
2022/10/26 06:37:53;;;;;;;16.70;6.35;;;;;;;12.12;37.56;100302.38;5032429;28;20452;-61
2022/10/26 06:40:19;;;;;;;14.85;6.60;;;;;;;12.99;35.48;100295.34;5037424;28;20060;-62
2022/10/26 06:42:45;;;;;;;15.48;6.30;;;;;;;14.05;33.04;100297.22;5053161;28;20095;-61
2022/10/26 06:45:15;;;;;;;9.23;5.97;;;;;;;14.01;33.02;100296.63;5041834;28;20045;-61
2022/10/26 06:48:05;;;;;;;11.07;6.25;;;;;;;14.04;33.43;100300.91;5032879;28;20096;-61
2022/10/26 06:50:37;;;;;;;16.33;6.07;;;;;;;13.71;33.02;100295.63;5037477;28;20044;-61
2022/10/26 06:53:24;;;;;;;12.52;6.30;;;;;;;13.65;34.94;100285.41;5050654;28;20091;-61
2022/10/26 06:55:51;;;;;;;15.18;6.80;;;;;;;13.64;33.16;100283.72;5052391;28;20040;-62
2022/10/26 06:58:22;;;;;;;12.38;5.95;;;;;;;14.12;33.28;100284.91;5052477;28;20049;-68
2022/10/26 07:00:50;;;;;;;12.13;5.95;;;;;;;15.13;31.38;100297.50;5050785;28;20140;-61
2022/10/26 07:03:16;;;;;;;16.20;6.55;;;;;;;16.21;29.12;100296.41;5051998;28;20408;-61
2022/10/26 07:05:43;;;;;;;13.13;6.57;;;;;;;17.40;27.13;100299.22;5052183;28;20055;-61
2022/10/26 07:08:08;;;;;;;43.55;13.63;;;;;;;17.20;26.99;100283.16;5050494;28;20036;-60
2022/10/26 07:10:37;;;;;;;14.75;6.30;;;;;;;16.55;27.87;100276.03;5051021;28;20029;-63
2022/10/26 07:13:07;;;;;;;12.07;6.30;;;;;;;16.11;28.48;100285.66;5051975;28;20527;-63
2022/10/26 07:15:34;;;;;;;16.02;6.40;;;;;;;16.14;28.55;100284.53;5050389;28;20465;-60
2022/10/26 07:17:59;;;;;;;10.48;6.20;;;;;;;16.41;27.57;100280.13;5052412;28;20059;-60
2022/10/26 07:20:25;;;;;;;11.15;6.75;;;;;;;16.63;27.11;100284.22;5052097;28;20100;-63
2022/10/26 07:22:52;;;;;;;10.02;5.90;;;;;;;16.74;26.99;100302.09;5052437;28;20116;-63
2022/10/26 07:25:17;;;;;;;15.98;6.40;;;;;;;16.57;26.86;100298.38;5046159;28;20025;-62
2022/10/26 07:27:43;;;;;;;36.47;7.63;;;;;;;15.77;27.38;100295.13;5046432;28;20091;-63
2022/10/26 07:30:09;;;;;;;12.23;6.38;;;;;;;14.75;29.02;100299.16;5038087;28;20424;-61
2022/10/26 07:32:34;;;;;;;13.20;6.13;;;;;;;14.00;30.24;100286.03;5052292;28;20037;-61
2022/10/26 07:35:00;;;;;;;11.40;5.95;;;;;;;12.97;31.18;100223.91;5041143;28;20033;-60
2022/10/26 07:37:25;;;;;;;9.43;6.35;;;;;;;12.92;32.21;100303.09;5030408;28;20124;-62
2022/10/26 07:39:50;;;;;;;13.02;6.75;;;;;;;12.40;32.59;100291.22;5035165;28;20353;-63
2022/10/26 07:42:16;;;;;;;11.93;6.82;;;;;;;12.04;33.62;100305.66;5054676;28;20049;-65
2022/10/26 07:44:41;;;;;;;13.35;6.50;;;;;;;11.48;34.19;100261.69;5031991;28;20452;-63
2022/10/26 07:47:07;;;;;;;10.93;6.75;;;;;;;11.14;34.64;100287.53;5033158;28;20562;-66
2022/10/26 07:49:33;;;;;;;9.77;6.47;;;;;;;10.69;36.14;100267.63;5018269;28;20087;-63
2022/10/26 07:51:58;;;;;;;13.60;6.75;;;;;;;10.79;35.66;100288.34;5054002;28;20078;-61
2022/10/26 07:54:24;;;;;;;31.70;7.20;;;;;;;10.42;36.61;100290.09;5055665;28;20037;-62
2022/10/26 07:56:49;;;;;;;10.63;6.60;;;;;;;10.44;36.73;100295.31;5055006;28;20176;-69
2022/10/26 07:59:16;;;;;;;14.65;6.90;;;;;;;10.51;36.78;100303.78;5055200;28;20033;-62
2022/10/26 08:01:41;;;;;;;11.73;6.43;;;;;;;10.57;36.54;100293.47;5055121;28;20029;-63
2022/10/26 08:04:07;;;;;;;10.40;6.50;;;;;;;10.47;36.42;100298.66;5055254;28;20044;-62
2022/10/26 08:06:32;;;;;;;14.45;7.40;;;;;;;10.62;37.16;100290.47;5048626;28;20025;-64
2022/10/26 08:08:58;;;;;;;11.82;7.07;;;;;;;10.85;36.66;100295.91;5038875;28;20198;-62
2022/10/26 08:11:24;;;;;;;13.88;6.78;;;;;;;10.74;36.46;100304.78;5045967;28;20033;-65
2022/10/26 08:13:53;;;;;;;10.40;6.63;;;;;;;10.46;37.44;100312.13;5050758;28;20467;-63
2022/10/26 08:16:19;;;;;;;13.13;7.47;;;;;;;10.16;37.96;100310.66;5051040;28;20029;-65
2022/10/26 08:18:49;;;;;;;14.38;6.72;;;;;;;10.09;38.45;100298.69;5055571;28;20437;-62
2022/10/26 08:21:15;;;;;;;13.02;6.75;;;;;;;10.03;38.23;100305.34;5053938;28;20041;-62
2022/10/26 08:23:41;;;;;;;13.55;6.53;;;;;;;10.03;38.29;100306.19;5038246;28;20112;-63
2022/10/26 08:26:10;;;;;;;15.68;6.50;;;;;;;9.99;38.54;100279.78;5051297;28;20024;-63
2022/10/26 08:28:36;;;;;;;13.68;8.50;;;;;;;10.10;38.52;100300.41;5074506;28;20040;-62
2022/10/26 08:31:02;;;;;;;13.43;6.78;;;;;;;10.03;38.56;100300.84;5044481;28;20033;-62
2022/10/26 08:33:27;;;;;;;13.93;7.90;;;;;;;9.85;39.05;100302.97;5050125;28;20104;-63
2022/10/26 08:36:01;;;;;;;13.70;6.88;;;;;;;9.76;39.47;100300.97;5050922;28;20045;-61
2022/10/26 08:38:27;;;;;;;14.80;7.38;;;;;;;9.47;40.00;100302.00;5049319;28;20414;-60
2022/10/26 08:40:53;;;;;;;10.45;7.05;;;;;;;9.31;39.83;100304.03;5050940;28;20033;-59
2022/10/26 08:43:25;;;;;;;10.50;6.45;;;;;;;9.30;39.95;100299.66;5049389;28;20041;-62
2022/10/26 08:46:03;;;;;;;12.50;7.18;;;;;;;9.26;40.32;100296.31;5035637;28;20055;-63
2022/10/26 08:48:35;;;;;;;13.18;6.95;;;;;;;9.21;40.66;100305.59;5035144;28;20029;-64
2022/10/26 08:51:24;;;;;;;13.48;7.07;;;;;;;9.28;40.25;100283.69;5035709;28;20033;-64
2022/10/26 08:54:12;;;;;;;12.35;7.22;;;;;;;9.43;40.40;100297.84;5037822;28;20042;-66
2022/10/26 08:56:41;;;;;;;11.02;6.85;;;;;;;9.22;40.75;100293.94;5059528;28;20121;-67
2022/10/26 08:59:39;;;;;;;14.30;6.88;;;;;;;9.46;40.62;100302.13;5042949;28;20055;-63
2022/10/26 09:02:16;;;;;;;11.25;6.53;;;;;;;9.52;40.12;100293.69;5045905;28;20060;-68
2022/10/26 09:04:43;;;;;;;13.07;7.22;;;;;;;9.45;40.25;100311.09;5055061;28;20115;-65
2022/10/26 09:07:11;;;;;;;13.10;6.80;;;;;;;9.26;40.31;100304.34;5048363;28;20036;-64
2022/10/26 09:09:58;;;;;;;11.95;6.53;;;;;;;9.26;40.71;100304.34;5034439;28;20041;-62
2022/10/26 09:12:37;;;;;;;11.13;6.70;;;;;;;9.21;40.80;100298.44;5048536;28;20095;-60
2022/10/26 09:15:52;;;;;;;11.35;6.65;;;;;;;9.74;40.44;100305.56;5039053;28;20124;-61
2022/10/26 09:18:50;;;;;;;13.73;6.60;;;;;;;9.80;40.24;100305.13;4955357;28;20494;-65
2022/10/26 09:21:35;;;;;;;11.60;6.68;;;;;;;9.62;40.35;100297.41;5021329;28;20052;-61
2022/10/26 09:24:06;;;;;;;11.80;7.10;;;;;;;9.45;40.69;100311.94;5052625;28;20057;-61
2022/10/26 09:26:40;;;;;;;18.02;6.22;;;;;;;9.27;40.59;100303.38;5040213;28;20064;-60
2022/10/26 09:29:11;;;;;;;16.05;6.80;;;;;;;8.99;41.60;100310.56;5035294;28;20188;-69
2022/10/26 09:31:44;;;;;;;9.65;6.38;;;;;;;8.92;41.47;100298.56;5050227;28;20120;-63
2022/10/26 09:34:23;;;;;;;12.18;6.47;;;;;;;9.01;41.37;100300.63;5034123;28;20690;-64
2022/10/26 09:36:53;;;;;;;13.02;6.55;;;;;;;8.75;42.23;100294.34;5036176;28;20098;-65
2022/10/26 09:39:46;;;;;;;9.90;6.47;;;;;;;8.69;42.18;100311.63;5051799;28;20033;-66
2022/10/26 09:42:23;;;;;;;13.23;6.60;;;;;;;8.39;42.83;100309.09;5052635;28;20051;-61
2022/10/26 09:44:54;;;;;;;11.10;6.63;;;;;;;8.17;43.36;100308.63;5053540;28;20367;-64
2022/10/26 09:47:31;;;;;;;13.15;7.18;;;;;;;8.14;43.74;100298.16;5045383;28;20036;-64
2022/10/26 09:50:23;;;;;;;12.52;7.03;;;;;;;8.25;43.71;100301.97;5051300;28;20037;-59
2022/10/26 09:52:48;;;;;;;11.07;6.90;;;;;;;8.14;43.73;100300.81;5053520;28;20129;-62
2022/10/26 09:55:14;;;;;;;13.50;6.85;;;;;;;8.03;43.75;100308.66;5048564;28;20069;-64
2022/10/26 09:57:45;;;;;;;10.13;6.88;;;;;;;8.00;43.93;100312.34;5048820;28;20033;-61
2022/10/26 10:00:16;;;;;;;14.82;6.70;;;;;;;7.86;44.07;100309.69;5053108;28;20037;-63
2022/10/26 10:02:43;;;;;;;15.73;6.82;;;;;;;7.83;44.22;100301.84;5052885;28;20111;-62
2022/10/26 10:05:26;;;;;;;9.98;6.28;;;;;;;7.83;44.44;100309.84;5052434;28;20560;-64
2022/10/26 10:08:14;;;;;;;12.23;6.00;;;;;;;7.74;44.75;100301.47;5052010;28;20571;-64
2022/10/26 10:11:07;;;;;;;13.68;6.47;;;;;;;7.80;44.40;100307.38;5052811;28;20119;-69
2022/10/26 10:13:35;;;;;;;11.00;6.28;;;;;;;7.64;44.54;100281.69;5049063;28;20087;-65
2022/10/26 10:16:06;;;;;;;10.32;6.03;;;;;;;7.73;44.62;100301.59;5053018;28;20083;-64
2022/10/26 10:18:32;;;;;;;11.20;6.25;;;;;;;7.67;44.92;100296.63;5052897;28;20064;-64
2022/10/26 10:20:58;;;;;;;11.52;6.00;;;;;;;7.81;44.41;100277.97;5052638;28;20109;-62
2022/10/26 10:23:27;;;;;;;10.05;6.70;;;;;;;7.97;44.61;100285.88;5051509;28;20025;-63
2022/10/26 10:26:19;;;;;;;13.00;6.10;;;;;;;8.26;44.21;100299.19;5052899;28;20028;-64
2022/10/26 10:28:57;;;;;;;10.77;5.47;;;;;;;8.27;43.78;100292.88;5069584;28;20113;-61
2022/10/26 10:31:28;;;;;;;11.82;5.80;;;;;;;8.12;43.72;100289.38;5071436;28;20060;-63
2022/10/26 10:33:54;;;;;;;8.80;5.30;;;;;;;7.98;44.21;100284.91;5072484;28;20502;-62
2022/10/26 10:36:26;;;;;;;7.45;5.53;;;;;;;8.10;43.46;100291.28;5073177;28;20119;-61
2022/10/26 10:38:53;;;;;;;10.10;5.53;;;;;;;8.03;43.60;100285.47;5072502;28;20036;-60
2022/10/26 10:41:31;;;;;;;11.30;5.82;;;;;;;8.07;44.09;100288.81;5072409;28;20025;-61
2022/10/26 10:44:21;;;;;;;9.48;5.40;;;;;;;8.21;43.93;100287.09;5054021;28;20038;-59
2022/10/26 10:46:47;;;;;;;8.57;5.35;;;;;;;8.26;42.96;100287.66;5039730;28;20030;-61
2022/10/26 10:49:26;;;;;;;7.80;4.85;;;;;;;8.26;43.58;100283.16;5051426;28;20367;-59
2022/10/26 10:51:54;;;;;;;10.77;5.40;;;;;;;8.23;43.29;100287.88;5043070;28;20115;-57
2022/10/26 10:54:33;;;;;;;8.63;5.38;;;;;;;8.38;43.09;100296.69;5050659;28;20041;-60
2022/10/26 10:57:26;;;;;;;10.32;5.30;;;;;;;8.28;43.51;100280.41;5050769;28;20037;-56
2022/10/26 10:59:59;;;;;;;9.70;5.95;;;;;;;8.25;43.59;100286.78;5047979;28;20119;-55
2022/10/26 11:03:04;;;;;;;10.02;5.82;;;;;;;8.44;42.76;100294.50;5035125;28;20443;-56
2022/10/26 11:05:48;;;;;;;9.93;5.45;;;;;;;8.15;43.38;100291.84;5051490;28;20037;-60
2022/10/26 11:08:31;;;;;;;9.98;5.60;;;;;;;8.21;43.74;100290.63;5032848;28;20448;-64
2022/10/26 11:10:59;;;;;;;8.52;5.05;;;;;;;8.11;43.51;100279.66;5050523;28;20029;-63
2022/10/26 11:13:31;;;;;;;9.38;5.43;;;;;;;8.29;43.61;100279.47;5063338;28;20032;-62
2022/10/26 11:16:04;;;;;;;11.25;5.28;;;;;;;8.31;43.17;100286.41;5057659;28;20037;-62
2022/10/26 11:18:40;;;;;;;7.50;4.80;;;;;;;8.26;43.58;100291.19;5048525;28;20443;-62
2022/10/26 11:21:18;;;;;;;11.05;5.40;;;;;;;8.05;43.47;100258.72;5034559;28;20041;-63
2022/10/26 11:24:09;;;;;;;11.20;5.70;;;;;;;8.22;43.70;100284.31;5038053;28;20033;-63
2022/10/26 11:26:43;;;;;;;12.07;5.80;;;;;;;8.07;43.81;100275.50;5050681;28;20044;-62
2022/10/26 11:29:39;;;;;;;10.63;5.40;;;;;;;8.27;43.97;100292.06;5056628;28;20470;-63
2022/10/26 11:32:14;;;;;;;13.38;5.72;;;;;;;8.33;43.56;100283.66;5042740;28;20059;-64
2022/10/26 11:34:48;;;;;;;10.35;5.88;;;;;;;8.17;43.99;100281.09;5037823;28;20037;-63
2022/10/26 11:37:31;;;;;;;10.50;5.97;;;;;;;7.92;44.50;100279.09;5032675;28;20029;-62
2022/10/26 11:40:16;;;;;;;11.85;5.90;;;;;;;7.94;44.58;100302.06;5050333;28;20379;-62
2022/10/26 11:42:49;;;;;;;10.13;6.05;;;;;;;7.86;44.97;100280.38;5041604;28;20049;-61